sensor_id;sensor_type;location;lat;lon;timestamp;P1;durP1;ratioP1;P2;durP2;ratioP2
67995;SDS011;54772;53.544;49.324;2022-07-29T00:01:34;10.43;;;6.10;;
67995;SDS011;54772;53.544;49.324;2022-07-29T00:04:01;9.38;;;6.10;;
67995;SDS011;54772;53.544;49.324;2022-07-29T00:06:27;7.95;;;6.18;;
67995;SDS011;54772;53.544;49.324;2022-07-29T00:08:54;10.55;;;6.20;;
67995;SDS011;54772;53.544;49.324;2022-07-29T00:11:21;10.68;;;6.15;;
67995;SDS011;54772;53.544;49.324;2022-07-29T00:13:47;11.52;;;6.03;;
67995;SDS011;54772;53.544;49.324;2022-07-29T00:16:14;11.38;;;6.20;;
67995;SDS011;54772;53.544;49.324;2022-07-29T00:18:40;11.70;;;7.10;;
67995;SDS011;54772;53.544;49.324;2022-07-29T00:21:07;8.70;;;5.82;;
67995;SDS011;54772;53.544;49.324;2022-07-29T00:23:34;10.38;;;6.45;;
67995;SDS011;54772;53.544;49.324;2022-07-29T00:26:00;9.95;;;6.57;;
67995;SDS011;54772;53.544;49.324;2022-07-29T00:28:27;12.57;;;6.85;;
67995;SDS011;54772;53.544;49.324;2022-07-29T00:30:54;9.98;;;6.50;;
67995;SDS011;54772;53.544;49.324;2022-07-29T00:33:20;12.05;;;7.03;;
67995;SDS011;54772;53.544;49.324;2022-07-29T00:35:48;8.10;;;5.90;;
67995;SDS011;54772;53.544;49.324;2022-07-29T00:38:16;10.30;;;6.18;;
67995;SDS011;54772;53.544;49.324;2022-07-29T00:40:44;7.85;;;5.68;;
67995;SDS011;54772;53.544;49.324;2022-07-29T00:43:11;7.97;;;5.60;;
67995;SDS011;54772;53.544;49.324;2022-07-29T00:45:39;7.20;;;5.30;;
67995;SDS011;54772;53.544;49.324;2022-07-29T00:48:06;8.95;;;5.80;;
67995;SDS011;54772;53.544;49.324;2022-07-29T00:50:34;9.02;;;5.30;;
67995;SDS011;54772;53.544;49.324;2022-07-29T00:53:01;10.15;;;6.07;;
67995;SDS011;54772;53.544;49.324;2022-07-29T00:55:29;9.75;;;5.70;;
67995;SDS011;54772;53.544;49.324;2022-07-29T00:57:55;9.35;;;6.30;;
67995;SDS011;54772;53.544;49.324;2022-07-29T01:00:24;7.35;;;5.37;;
67995;SDS011;54772;53.544;49.324;2022-07-29T01:02:52;8.43;;;5.65;;
67995;SDS011;54772;53.544;49.324;2022-07-29T01:05:20;11.63;;;6.05;;
67995;SDS011;54772;53.544;49.324;2022-07-29T01:07:48;11.68;;;6.20;;
67995;SDS011;54772;53.544;49.324;2022-07-29T01:10:16;10.50;;;6.10;;
67995;SDS011;54772;53.544;49.324;2022-07-29T01:12:45;10.45;;;6.43;;
67995;SDS011;54772;53.544;49.324;2022-07-29T01:15:13;9.27;;;5.78;;
67995;SDS011;54772;53.544;49.324;2022-07-29T01:17:52;8.80;;;6.20;;
67995;SDS011;54772;53.544;49.324;2022-07-29T01:20:29;10.80;;;6.55;;
67995;SDS011;54772;53.544;49.324;2022-07-29T01:29:03;9.05;;;6.37;;
67995;SDS011;54772;53.544;49.324;2022-07-29T01:34:05;10.90;;;6.60;;
67995;SDS011;54772;53.544;49.324;2022-07-29T01:36:43;9.07;;;6.68;;
67995;SDS011;54772;53.544;49.324;2022-07-29T01:39:27;10.90;;;6.55;;
67995;SDS011;54772;53.544;49.324;2022-07-29T01:41:59;9.20;;;7.05;;
67995;SDS011;54772;53.544;49.324;2022-07-29T01:44:39;10.00;;;7.00;;
67995;SDS011;54772;53.544;49.324;2022-07-29T01:47:12;12.27;;;7.00;;
67995;SDS011;54772;53.544;49.324;2022-07-29T01:49:45;10.50;;;6.47;;
67995;SDS011;54772;53.544;49.324;2022-07-29T01:52:36;10.98;;;6.28;;
67995;SDS011;54772;53.544;49.324;2022-07-29T01:55:09;9.05;;;6.82;;
67995;SDS011;54772;53.544;49.324;2022-07-29T01:57:43;11.85;;;7.20;;
67995;SDS011;54772;53.544;49.324;2022-07-29T02:00:11;13.38;;;7.62;;
67995;SDS011;54772;53.544;49.324;2022-07-29T02:02:39;9.57;;;7.12;;
67995;SDS011;54772;53.544;49.324;2022-07-29T02:05:07;10.45;;;7.12;;
67995;SDS011;54772;53.544;49.324;2022-07-29T02:07:37;16.02;;;7.30;;
67995;SDS011;54772;53.544;49.324;2022-07-29T02:10:07;11.25;;;7.62;;
67995;SDS011;54772;53.544;49.324;2022-07-29T02:12:34;11.30;;;7.20;;
67995;SDS011;54772;53.544;49.324;2022-07-29T02:15:02;11.93;;;7.62;;
67995;SDS011;54772;53.544;49.324;2022-07-29T02:17:33;11.07;;;7.95;;
67995;SDS011;54772;53.544;49.324;2022-07-29T02:20:09;14.77;;;7.80;;
67995;SDS011;54772;53.544;49.324;2022-07-29T02:22:37;14.45;;;7.93;;
67995;SDS011;54772;53.544;49.324;2022-07-29T02:25:05;15.43;;;8.60;;
67995;SDS011;54772;53.544;49.324;2022-07-29T02:27:33;12.32;;;7.82;;
67995;SDS011;54772;53.544;49.324;2022-07-29T02:30:01;15.55;;;9.25;;
67995;SDS011;54772;53.544;49.324;2022-07-29T02:32:29;17.60;;;9.48;;
67995;SDS011;54772;53.544;49.324;2022-07-29T02:34:56;14.68;;;9.30;;
67995;SDS011;54772;53.544;49.324;2022-07-29T02:37:24;13.98;;;8.65;;
67995;SDS011;54772;53.544;49.324;2022-07-29T02:39:52;16.45;;;9.10;;
67995;SDS011;54772;53.544;49.324;2022-07-29T02:42:21;15.90;;;8.38;;
67995;SDS011;54772;53.544;49.324;2022-07-29T02:44:48;18.45;;;9.20;;
67995;SDS011;54772;53.544;49.324;2022-07-29T02:47:30;19.35;;;9.85;;
67995;SDS011;54772;53.544;49.324;2022-07-29T02:52:57;16.27;;;8.88;;
67995;SDS011;54772;53.544;49.324;2022-07-29T02:55:35;20.37;;;9.38;;
67995;SDS011;54772;53.544;49.324;2022-07-29T02:58:08;18.37;;;9.37;;
67995;SDS011;54772;53.544;49.324;2022-07-29T03:00:46;15.80;;;8.70;;
67995;SDS011;54772;53.544;49.324;2022-07-29T03:03:15;16.37;;;9.07;;
67995;SDS011;54772;53.544;49.324;2022-07-29T03:05:42;17.73;;;10.35;;
67995;SDS011;54772;53.544;49.324;2022-07-29T03:08:10;16.48;;;9.18;;
67995;SDS011;54772;53.544;49.324;2022-07-29T03:10:37;16.48;;;9.05;;
67995;SDS011;54772;53.544;49.324;2022-07-29T03:13:05;15.35;;;9.27;;
67995;SDS011;54772;53.544;49.324;2022-07-29T03:15:33;19.17;;;9.82;;
67995;SDS011;54772;53.544;49.324;2022-07-29T03:18:00;14.32;;;8.55;;
67995;SDS011;54772;53.544;49.324;2022-07-29T03:20:27;16.60;;;9.80;;
67995;SDS011;54772;53.544;49.324;2022-07-29T03:22:54;15.18;;;8.63;;
67995;SDS011;54772;53.544;49.324;2022-07-29T03:25:20;17.20;;;9.73;;
67995;SDS011;54772;53.544;49.324;2022-07-29T03:27:47;12.00;;;8.10;;
67995;SDS011;54772;53.544;49.324;2022-07-29T03:30:14;14.25;;;8.52;;
67995;SDS011;54772;53.544;49.324;2022-07-29T03:32:41;15.63;;;8.77;;
67995;SDS011;54772;53.544;49.324;2022-07-29T03:35:08;15.80;;;8.27;;
67995;SDS011;54772;53.544;49.324;2022-07-29T03:37:34;15.45;;;7.97;;
67995;SDS011;54772;53.544;49.324;2022-07-29T03:40:03;15.95;;;8.55;;
67995;SDS011;54772;53.544;49.324;2022-07-29T03:42:35;16.77;;;8.07;;
67995;SDS011;54772;53.544;49.324;2022-07-29T03:45:05;13.50;;;8.13;;
67995;SDS011;54772;53.544;49.324;2022-07-29T03:47:35;12.13;;;7.12;;
67995;SDS011;54772;53.544;49.324;2022-07-29T03:50:06;12.73;;;7.57;;
67995;SDS011;54772;53.544;49.324;2022-07-29T03:52:33;11.90;;;6.93;;
67995;SDS011;54772;53.544;49.324;2022-07-29T03:55:01;13.30;;;7.25;;
67995;SDS011;54772;53.544;49.324;2022-07-29T03:57:28;12.30;;;7.40;;
67995;SDS011;54772;53.544;49.324;2022-07-29T03:59:57;8.57;;;6.32;;
67995;SDS011;54772;53.544;49.324;2022-07-29T04:02:24;11.90;;;7.12;;
67995;SDS011;54772;53.544;49.324;2022-07-29T04:04:50;13.32;;;7.55;;
67995;SDS011;54772;53.544;49.324;2022-07-29T04:07:17;10.85;;;6.85;;
67995;SDS011;54772;53.544;49.324;2022-07-29T04:09:44;10.48;;;7.10;;
67995;SDS011;54772;53.544;49.324;2022-07-29T04:12:11;11.32;;;6.32;;
67995;SDS011;54772;53.544;49.324;2022-07-29T04:14:37;10.25;;;6.53;;
67995;SDS011;54772;53.544;49.324;2022-07-29T04:17:04;12.52;;;6.32;;
67995;SDS011;54772;53.544;49.324;2022-07-29T04:19:31;9.10;;;5.95;;
67995;SDS011;54772;53.544;49.324;2022-07-29T04:21:59;10.70;;;6.12;;
67995;SDS011;54772;53.544;49.324;2022-07-29T04:24:26;8.63;;;5.72;;
67995;SDS011;54772;53.544;49.324;2022-07-29T04:26:52;9.88;;;5.47;;
67995;SDS011;54772;53.544;49.324;2022-07-29T04:29:19;7.90;;;5.10;;
67995;SDS011;54772;53.544;49.324;2022-07-29T04:31:46;8.95;;;5.85;;
67995;SDS011;54772;53.544;49.324;2022-07-29T04:34:12;7.68;;;5.78;;
67995;SDS011;54772;53.544;49.324;2022-07-29T04:36:39;7.37;;;5.70;;
67995;SDS011;54772;53.544;49.324;2022-07-29T04:39:06;11.35;;;5.12;;
67995;SDS011;54772;53.544;49.324;2022-07-29T04:41:32;9.23;;;6.00;;
67995;SDS011;54772;53.544;49.324;2022-07-29T04:43:59;8.52;;;5.45;;
67995;SDS011;54772;53.544;49.324;2022-07-29T04:46:30;8.65;;;5.32;;
67995;SDS011;54772;53.544;49.324;2022-07-29T04:48:57;9.25;;;5.35;;
67995;SDS011;54772;53.544;49.324;2022-07-29T04:51:23;7.93;;;5.85;;
67995;SDS011;54772;53.544;49.324;2022-07-29T04:53:50;9.98;;;5.75;;
67995;SDS011;54772;53.544;49.324;2022-07-29T04:56:17;7.15;;;4.97;;
67995;SDS011;54772;53.544;49.324;2022-07-29T04:58:43;6.72;;;5.25;;
67995;SDS011;54772;53.544;49.324;2022-07-29T05:01:10;9.38;;;5.20;;
67995;SDS011;54772;53.544;49.324;2022-07-29T05:03:37;6.50;;;5.07;;
67995;SDS011;54772;53.544;49.324;2022-07-29T05:06:03;8.05;;;5.03;;
67995;SDS011;54772;53.544;49.324;2022-07-29T05:08:30;7.93;;;5.40;;
67995;SDS011;54772;53.544;49.324;2022-07-29T05:10:57;6.75;;;5.40;;
67995;SDS011;54772;53.544;49.324;2022-07-29T05:13:23;7.35;;;5.47;;
67995;SDS011;54772;53.544;49.324;2022-07-29T05:15:50;9.27;;;5.53;;
67995;SDS011;54772;53.544;49.324;2022-07-29T05:18:17;8.05;;;5.60;;
67995;SDS011;54772;53.544;49.324;2022-07-29T05:20:43;7.40;;;5.60;;
67995;SDS011;54772;53.544;49.324;2022-07-29T05:23:10;7.70;;;5.10;;
67995;SDS011;54772;53.544;49.324;2022-07-29T05:25:37;7.35;;;5.07;;
67995;SDS011;54772;53.544;49.324;2022-07-29T05:28:04;6.75;;;5.07;;
67995;SDS011;54772;53.544;49.324;2022-07-29T05:30:31;6.93;;;5.40;;
67995;SDS011;54772;53.544;49.324;2022-07-29T05:32:57;10.52;;;5.35;;
67995;SDS011;54772;53.544;49.324;2022-07-29T05:35:24;5.93;;;5.03;;
67995;SDS011;54772;53.544;49.324;2022-07-29T05:37:51;7.55;;;5.20;;
67995;SDS011;54772;53.544;49.324;2022-07-29T05:40:17;7.93;;;5.40;;
67995;SDS011;54772;53.544;49.324;2022-07-29T05:42:44;9.35;;;5.22;;
67995;SDS011;54772;53.544;49.324;2022-07-29T05:45:11;6.87;;;5.45;;
67995;SDS011;54772;53.544;49.324;2022-07-29T05:47:37;5.37;;;4.53;;
67995;SDS011;54772;53.544;49.324;2022-07-29T05:50:04;7.20;;;5.28;;
67995;SDS011;54772;53.544;49.324;2022-07-29T05:52:31;6.70;;;4.55;;
67995;SDS011;54772;53.544;49.324;2022-07-29T05:54:58;8.15;;;5.30;;
67995;SDS011;54772;53.544;49.324;2022-07-29T05:57:27;6.68;;;4.95;;
67995;SDS011;54772;53.544;49.324;2022-07-29T05:59:54;8.57;;;5.28;;
67995;SDS011;54772;53.544;49.324;2022-07-29T06:02:21;6.68;;;5.00;;
67995;SDS011;54772;53.544;49.324;2022-07-29T06:04:48;10.95;;;5.78;;
67995;SDS011;54772;53.544;49.324;2022-07-29T06:07:14;6.25;;;4.90;;
67995;SDS011;54772;53.544;49.324;2022-07-29T06:09:41;6.12;;;5.22;;
67995;SDS011;54772;53.544;49.324;2022-07-29T06:12:08;6.85;;;5.05;;
67995;SDS011;54772;53.544;49.324;2022-07-29T06:14:35;7.97;;;5.05;;
67995;SDS011;54772;53.544;49.324;2022-07-29T06:17:07;7.05;;;4.93;;
67995;SDS011;54772;53.544;49.324;2022-07-29T06:19:37;7.35;;;5.00;;
67995;SDS011;54772;53.544;49.324;2022-07-29T06:22:04;6.32;;;5.25;;
67995;SDS011;54772;53.544;49.324;2022-07-29T06:24:31;9.85;;;5.30;;
67995;SDS011;54772;53.544;49.324;2022-07-29T06:26:57;6.60;;;4.95;;
67995;SDS011;54772;53.544;49.324;2022-07-29T06:32:10;6.60;;;5.05;;
67995;SDS011;54772;53.544;49.324;2022-07-29T06:34:36;8.80;;;5.37;;
67995;SDS011;54772;53.544;49.324;2022-07-29T06:39:49;7.75;;;4.87;;
67995;SDS011;54772;53.544;49.324;2022-07-29T06:48:33;6.18;;;4.62;;
67995;SDS011;54772;53.544;49.324;2022-07-29T06:57:28;7.95;;;4.85;;
67995;SDS011;54772;53.544;49.324;2022-07-29T07:04:32;6.10;;;4.78;;
67995;SDS011;54772;53.544;49.324;2022-07-29T07:22:46;8.90;;;5.43;;
67995;SDS011;54772;53.544;49.324;2022-07-29T07:29:00;7.03;;;5.62;;
67995;SDS011;54772;53.544;49.324;2022-07-29T08:05:11;8.52;;;5.30;;
67995;SDS011;54772;53.544;49.324;2022-07-29T08:19:57;9.20;;;6.65;;
67995;SDS011;54772;53.544;49.324;2022-07-29T08:32:19;8.18;;;6.03;;
67995;SDS011;54772;53.544;49.324;2022-07-29T08:45:02;7.57;;;5.07;;
67995;SDS011;54772;53.544;49.324;2022-07-29T09:35:27;7.97;;;5.20;;
67995;SDS011;54772;53.544;49.324;2022-07-29T09:58:45;7.25;;;5.70;;
67995;SDS011;54772;53.544;49.324;2022-07-29T10:12:17;8.32;;;5.50;;
67995;SDS011;54772;53.544;49.324;2022-07-29T13:25:35;9.23;;;6.30;;
67995;SDS011;54772;53.544;49.324;2022-07-29T13:41:18;9.13;;;6.72;;
67995;SDS011;54772;53.544;49.324;2022-07-29T13:47:11;10.13;;;6.03;;
67995;SDS011;54772;53.544;49.324;2022-07-29T14:35:32;10.27;;;7.00;;
67995;SDS011;54772;53.544;49.324;2022-07-29T14:51:32;10.00;;;6.28;;
67995;SDS011;54772;53.544;49.324;2022-07-29T15:37:41;9.85;;;7.30;;
67995;SDS011;54772;53.544;49.324;2022-07-29T15:43:50;10.60;;;6.53;;
67995;SDS011;54772;53.544;49.324;2022-07-29T15:49:40;9.57;;;7.20;;
67995;SDS011;54772;53.544;49.324;2022-07-29T15:55:55;11.35;;;7.90;;
67995;SDS011;54772;53.544;49.324;2022-07-29T15:58:21;9.73;;;7.25;;
67995;SDS011;54772;53.544;49.324;2022-07-29T16:20:10;10.15;;;7.10;;
67995;SDS011;54772;53.544;49.324;2022-07-29T16:48:29;11.00;;;7.75;;
67995;SDS011;54772;53.544;49.324;2022-07-29T17:11:35;12.02;;;8.95;;
67995;SDS011;54772;53.544;49.324;2022-07-29T17:24:48;10.18;;;7.03;;
67995;SDS011;54772;53.544;49.324;2022-07-29T18:33:23;19.35;;;11.05;;
67995;SDS011;54772;53.544;49.324;2022-07-29T22:14:47;14.20;;;9.65;;
67995;SDS011;54772;53.544;49.324;2022-07-29T22:17:13;16.60;;;10.45;;
67995;SDS011;54772;53.544;49.324;2022-07-29T22:19:40;14.35;;;10.15;;
67995;SDS011;54772;53.544;49.324;2022-07-29T22:25:30;16.75;;;9.98;;
67995;SDS011;54772;53.544;49.324;2022-07-29T22:27:56;14.43;;;9.57;;
67995;SDS011;54772;53.544;49.324;2022-07-29T22:30:23;14.40;;;10.80;;
67995;SDS011;54772;53.544;49.324;2022-07-29T22:32:50;16.00;;;10.48;;
67995;SDS011;54772;53.544;49.324;2022-07-29T22:35:16;14.77;;;9.68;;
67995;SDS011;54772;53.544;49.324;2022-07-29T22:37:43;15.40;;;9.98;;
67995;SDS011;54772;53.544;49.324;2022-07-29T22:40:10;13.95;;;9.57;;
67995;SDS011;54772;53.544;49.324;2022-07-29T22:42:37;15.57;;;10.00;;
67995;SDS011;54772;53.544;49.324;2022-07-29T22:45:03;15.43;;;10.02;;
67995;SDS011;54772;53.544;49.324;2022-07-29T22:47:30;14.87;;;10.45;;
67995;SDS011;54772;53.544;49.324;2022-07-29T22:49:57;16.27;;;10.60;;
67995;SDS011;54772;53.544;49.324;2022-07-29T22:52:24;15.68;;;10.75;;
67995;SDS011;54772;53.544;49.324;2022-07-29T22:54:51;16.33;;;9.95;;
67995;SDS011;54772;53.544;49.324;2022-07-29T22:57:17;16.45;;;9.77;;
67995;SDS011;54772;53.544;49.324;2022-07-29T22:59:44;15.15;;;9.63;;
67995;SDS011;54772;53.544;49.324;2022-07-29T23:02:10;15.00;;;10.27;;
67995;SDS011;54772;53.544;49.324;2022-07-29T23:04:37;12.23;;;9.10;;
67995;SDS011;54772;53.544;49.324;2022-07-29T23:07:04;12.20;;;8.82;;
67995;SDS011;54772;53.544;49.324;2022-07-29T23:09:30;13.93;;;9.65;;
67995;SDS011;54772;53.544;49.324;2022-07-29T23:11:57;13.20;;;9.23;;
67995;SDS011;54772;53.544;49.324;2022-07-29T23:14:24;15.00;;;10.02;;
67995;SDS011;54772;53.544;49.324;2022-07-29T23:16:51;13.15;;;9.40;;
67995;SDS011;54772;53.544;49.324;2022-07-29T23:19:18;12.10;;;9.05;;
67995;SDS011;54772;53.544;49.324;2022-07-29T23:21:45;16.85;;;8.75;;
67995;SDS011;54772;53.544;49.324;2022-07-29T23:24:11;17.20;;;10.65;;
67995;SDS011;54772;53.544;49.324;2022-07-29T23:26:38;11.27;;;8.88;;
67995;SDS011;54772;53.544;49.324;2022-07-29T23:29:05;13.30;;;8.68;;
67995;SDS011;54772;53.544;49.324;2022-07-29T23:31:31;11.35;;;8.95;;
67995;SDS011;54772;53.544;49.324;2022-07-29T23:33:58;12.77;;;8.65;;
67995;SDS011;54772;53.544;49.324;2022-07-29T23:36:25;12.32;;;8.27;;
67995;SDS011;54772;53.544;49.324;2022-07-29T23:38:52;11.90;;;8.50;;
67995;SDS011;54772;53.544;49.324;2022-07-29T23:41:20;11.50;;;8.43;;
67995;SDS011;54772;53.544;49.324;2022-07-29T23:43:47;13.00;;;8.63;;
67995;SDS011;54772;53.544;49.324;2022-07-29T23:46:14;11.48;;;8.32;;
67995;SDS011;54772;53.544;49.324;2022-07-29T23:48:41;12.30;;;8.55;;
67995;SDS011;54772;53.544;49.324;2022-07-29T23:51:08;10.60;;;8.07;;
67995;SDS011;54772;53.544;49.324;2022-07-29T23:53:35;12.90;;;8.35;;
67995;SDS011;54772;53.544;49.324;2022-07-29T23:56:02;11.68;;;8.00;;
67995;SDS011;54772;53.544;49.324;2022-07-29T23:58:29;12.55;;;8.13;;
